• Join FlightAware (Why Join?)
  • Login
  • US Flag 
09:21PM EDT


 

Airport Tracker/Info


-or-


 

Live Flight TrackerFlight Track Log ✈ DAL146 ✈ 09-May-2013 ✈ SCEL / SCL - KATL

Flight Track Log - Related Links

Times and Time Zones

All times are in EDT time to prevent confusion due to time zone crossing. See the DAL146 flight status page for this flight to view local times or setup timezone preferences in your user account.

Time Position Orientation Groundspeed Altitude Reporting Facility
EDT Latitude Longitude Course Direction KTS MPH feet Rate Location/Type
07:36PM -33.2785 -70.8079 351° North  Level FlightAware Approximate
07:37PM -33.1641 -70.8298 351° North  Level FlightAware Approximate
07:38PM -33.0497 -70.8518 351° North  Level FlightAware Approximate
07:39PM -32.9352 -70.8736 351° North  Level FlightAware Approximate
07:40PM -32.8208 -70.8955 351° North  Level FlightAware Approximate
07:41PM -32.7063 -70.9172 351° North  Level FlightAware Approximate
07:42PM -32.5919 -70.9389 351° North  Level FlightAware Approximate
07:43PM -32.4774 -70.9606 351° North  Level FlightAware Approximate
07:44PM -32.3630 -70.9822 351° North  Level FlightAware Approximate
07:45PM -32.2485 -71.0037 351° North  Level FlightAware Approximate
07:46PM -32.1340 -71.0252 351° North  Level FlightAware Approximate
07:47PM -32.0196 -71.0466 351° North  Level FlightAware Approximate
07:48PM -31.9051 -71.0680 351° North  Level FlightAware Approximate
07:49PM -31.7906 -71.0893 351° North  Level FlightAware Approximate
07:50PM -31.6694 -71.1122 351° North  Level FlightAware Approximate
07:51PM -31.5550 -71.1341 351° North  Level FlightAware Approximate
07:52PM -31.4406 -71.1558 351° North  Level FlightAware Approximate
07:53PM -31.3262 -71.1776 351° North  Level FlightAware Approximate
07:54PM -31.2118 -71.1992 351° North  Level FlightAware Approximate
07:55PM -31.0973 -71.2209 351° North  Level FlightAware Approximate
07:56PM -30.9829 -71.2424 351° North  Level FlightAware Approximate
07:57PM -30.8685 -71.2639 351° North  Level FlightAware Approximate
07:58PM -30.7541 -71.2854 351° North  Level FlightAware Approximate
07:59PM -30.6396 -71.3068 351° North  Level FlightAware Approximate
08:00PM -30.5252 -71.3282 351° North  Level FlightAware Approximate
08:01PM -30.4108 -71.3495 351° North  Level FlightAware Approximate
08:02PM -30.2963 -71.3708 351° North  Level FlightAware Approximate
08:03PM -30.1819 -71.3920 351° North  Level FlightAware Approximate
08:04PM -30.0674 -71.4131 351° North  Level FlightAware Approximate
08:05PM -29.9530 -71.4343 351° North  Level FlightAware Approximate
08:06PM -29.8385 -71.4553 351° North  Level FlightAware Approximate
08:07PM -29.7241 -71.4764 351° North  Level FlightAware Approximate
08:08PM -29.6096 -71.4973 351° North  Level FlightAware Approximate
08:09PM -29.4951 -71.5182 351° North  Level FlightAware Approximate
08:10PM -29.3807 -71.5391 351° North  Level FlightAware Approximate
08:11PM -29.2662 -71.5600 351° North  Level FlightAware Approximate
08:12PM -29.1517 -71.5807 351° North  Level FlightAware Approximate
08:13PM -29.0373 -71.6015 351° North  Level FlightAware Approximate
08:14PM -28.9228 -71.6222 351° North  Level FlightAware Approximate
08:15PM -28.8083 -71.6428 351° North  Level FlightAware Approximate
08:16PM -28.6938 -71.6634 351° North  Level FlightAware Approximate
08:17PM -28.5793 -71.6840 351° North  Level FlightAware Approximate
08:18PM -28.4648 -71.7045 351° North  Level FlightAware Approximate
08:19PM -28.3503 -71.7250 351° North  Level FlightAware Approximate
08:20PM -28.2358 -71.7454 351° North  Level FlightAware Approximate
08:21PM -28.1213 -71.7658 351° North  Level FlightAware Approximate
08:22PM -28.0068 -71.7861 351° North  Level FlightAware Approximate
08:23PM -27.8923 -71.8064 351° North  Level FlightAware Approximate
08:24PM -27.7778 -71.8266 351° North  Level FlightAware Approximate
08:25PM -27.6633 -71.8468 351° North  Level FlightAware Approximate
08:26PM -27.5488 -71.8670 351° North  Level FlightAware Approximate
08:27PM -27.4342 -71.8871 351° North  Level FlightAware Approximate
08:28PM -27.3197 -71.9072 351° North  Level FlightAware Approximate
08:29PM -27.2052 -71.9273 351° North  Level FlightAware Approximate
08:30PM -27.0907 -71.9473 351° North  Level FlightAware Approximate
08:31PM -26.9761 -71.9672 351° North  Level FlightAware Approximate
08:32PM -26.8616 -71.9871 351° North  Level FlightAware Approximate
08:33PM -26.7471 -72.0070 351° North  Level FlightAware Approximate
08:34PM -26.6325 -72.0268 351° North  Level FlightAware Approximate
08:35PM -26.5180 -72.0467 351° North  Level FlightAware Approximate
08:36PM -26.4034 -72.0664 351° North  Level FlightAware Approximate
08:37PM -26.2889 -72.0861 351° North  Level FlightAware Approximate
08:38PM -26.1743 -72.1058 351° North  Level FlightAware Approximate
08:39PM -26.0598 -72.1255 351° North  Level FlightAware Approximate
08:40PM -25.9452 -72.1451 351° North  Level FlightAware Approximate
08:41PM -25.8307 -72.1646 351° North  Level FlightAware Approximate
08:42PM -25.7161 -72.1841 351° North  Level FlightAware Approximate
08:43PM -25.6015 -72.2036 351° North  Level FlightAware Approximate
08:44PM -25.4870 -72.2231 351° North  Level FlightAware Approximate
08:45PM -25.3724 -72.2425 351° North  Level FlightAware Approximate
08:46PM -25.2578 -72.2619 351° North  Level FlightAware Approximate
08:47PM -25.1433 -72.2812 351° North  Level FlightAware Approximate
08:48PM -25.0287 -72.3005 351° North  Level FlightAware Approximate
08:49PM -24.9141 -72.3198 351° North  Level FlightAware Approximate
08:50PM -24.7995 -72.3390 351° North  Level FlightAware Approximate
08:51PM -24.6849 -72.3582 351° North  Level FlightAware Approximate
08:52PM -24.5704 -72.3774 351° North  Level FlightAware Approximate
08:53PM -24.4558 -72.3965 351° North  Level FlightAware Approximate
08:54PM -24.3412 -72.4156 351° North  Level FlightAware Approximate
08:55PM -24.2266 -72.4346 351° North  Level FlightAware Approximate
08:56PM -24.1120 -72.4537 351° North  Level FlightAware Approximate
08:57PM -23.9974 -72.4727 351° North  Level FlightAware Approximate
08:58PM -23.8828 -72.4916 351° North  Level FlightAware Approximate
08:59PM -23.7682 -72.5105 351° North  Level FlightAware Approximate
09:00PM -23.6536 -72.5294 351° North  Level FlightAware Approximate
09:01PM -23.5390 -72.5483 351° North  Level FlightAware Approximate
09:02PM -23.4244 -72.5671 351° North  Level FlightAware Approximate
09:03PM -23.3097 -72.5859 351° North  Level FlightAware Approximate
09:04PM -23.1951 -72.6047 351° North  Level FlightAware Approximate
09:05PM -23.0805 -72.6234 351° North  Level FlightAware Approximate
09:06PM -22.9651 -72.6422 351° North  Level FlightAware Approximate
09:07PM -22.8497 -72.6610 351° North  Level FlightAware Approximate
09:08PM -22.7344 -72.6798 351° North  Level FlightAware Approximate
09:09PM -22.6189 -72.6985 351° North  Level FlightAware Approximate
09:10PM -22.5035 -72.7172 351° North  Level FlightAware Approximate
09:11PM -22.3881 -72.7358 351° North  Level FlightAware Approximate
09:12PM -22.2728 -72.7545 352° North  Level FlightAware Approximate
09:13PM -22.1574 -72.7731 352° North  Level FlightAware Approximate
09:14PM -22.0419 -72.7916 352° North  Level FlightAware Approximate
09:15PM -21.9265 -72.8102 352° North  Level FlightAware Approximate
09:16PM -21.8111 -72.8287 352° North  Level FlightAware Approximate
09:17PM -21.6957 -72.8472 352° North  Level FlightAware Approximate
09:18PM -21.5803 -72.8656 352° North  Level FlightAware Approximate
09:19PM -21.4649 -72.8840 352° North  Level FlightAware Approximate
09:20PM -21.3495 -72.9024 352° North  Level FlightAware Approximate
09:21PM -21.2340 -72.9208 352° North  Level FlightAware Approximate
09:22PM -21.1186 -72.9391 352° North  Level FlightAware Approximate
09:23PM -21.0032 -72.9574 352° North  Level FlightAware Approximate
09:24PM -20.8878 -72.9757 352° North  Level FlightAware Approximate
09:25PM -20.7723 -72.9939 352° North  Level FlightAware Approximate
09:26PM -20.6569 -73.0122 352° North  Level FlightAware Approximate
09:27PM -20.5415 -73.0303 352° North  Level FlightAware Approximate
09:28PM -20.4261 -73.0485 352° North  Level FlightAware Approximate
09:29PM -20.3106 -73.0667 352° North  Level FlightAware Approximate
09:30PM -20.1952 -73.0848 352° North  Level FlightAware Approximate
09:31PM -20.0797 -73.1029 352° North  Level FlightAware Approximate
09:32PM -19.9643 -73.1209 352° North  Level FlightAware Approximate
09:33PM -19.8489 -73.1389 352° North  Level FlightAware Approximate
09:34PM -19.7334 -73.1569 352° North  Level FlightAware Approximate
09:35PM -19.6180 -73.1749 352° North  Level FlightAware Approximate
09:36PM -19.5025 -73.1929 352° North  Level FlightAware Approximate
09:37PM -19.3871 -73.2108 352° North  Level FlightAware Approximate
09:38PM -19.2716 -73.2287 352° North  Level FlightAware Approximate
09:39PM -19.1562 -73.2466 352° North  Level FlightAware Approximate
09:40PM -19.0407 -73.2644 352° North  Level FlightAware Approximate
09:41PM -18.9252 -73.2823 352° North  Level FlightAware Approximate
09:42PM -18.8098 -73.3001 352° North  Level FlightAware Approximate
09:43PM -18.6943 -73.3178 352° North  Level FlightAware Approximate
09:44PM -18.5788 -73.3356 352° North  Level FlightAware Approximate
09:45PM -18.4634 -73.3533 352° North  Level FlightAware Approximate
09:46PM -18.3479 -73.3710 352° North  Level FlightAware Approximate
09:47PM -18.2325 -73.3887 352° North  Level FlightAware Approximate
09:48PM -18.1170 -73.4064 352° North  Level FlightAware Approximate
09:49PM -18.0015 -73.4240 352° North  Level FlightAware Approximate
09:50PM -17.8860 -73.4416 352° North  Level FlightAware Approximate
09:51PM -17.7706 -73.4592 352° North  Level FlightAware Approximate
09:52PM -17.6551 -73.4768 352° North  Level FlightAware Approximate
09:53PM -17.5396 -73.4943 352° North  Level FlightAware Approximate
09:54PM -17.4241 -73.5118 352° North  Level FlightAware Approximate
09:55PM -17.3086 -73.5293 352° North  Level FlightAware Approximate
09:56PM -17.1932 -73.5468 352° North  Level FlightAware Approximate
09:57PM -17.0777 -73.5643 352° North  Level FlightAware Approximate
09:58PM -16.9622 -73.5817 352° North  Level FlightAware Approximate
09:59PM -16.8467 -73.5991 352° North  Level FlightAware Approximate
10:00PM -16.7312 -73.6165 352° North  Level FlightAware Approximate
10:01PM -16.6157 -73.6339 352° North  Level FlightAware Approximate
10:02PM -16.5002 -73.6512 352° North  Level FlightAware Approximate
10:03PM -16.3848 -73.6686 352° North  Level FlightAware Approximate
10:04PM -16.2693 -73.6859 352° North  Level FlightAware Approximate
10:05PM -16.1538 -73.7032 352° North  Level FlightAware Approximate
10:06PM -16.0383 -73.7204 352° North  Level FlightAware Approximate
10:07PM -15.9228 -73.7377 352° North  Level FlightAware Approximate
10:08PM -15.8073 -73.7549 352° North  Level FlightAware Approximate
10:09PM -15.6918 -73.7721 352° North  Level FlightAware Approximate
10:10PM -15.5763 -73.7893 352° North  Level FlightAware Approximate
10:11PM -15.4608 -73.8065 352° North  Level FlightAware Approximate
10:12PM -15.3453 -73.8236 352° North  Level FlightAware Approximate
10:13PM -15.2298 -73.8408 352° North  Level FlightAware Approximate
10:14PM -15.1143 -73.8579 352° North  Level FlightAware Approximate
10:15PM -14.9987 -73.8750 352° North  Level FlightAware Approximate
10:16PM -14.8832 -73.8920 352° North  Level FlightAware Approximate
10:17PM -14.7677 -73.9091 352° North  Level FlightAware Approximate
10:18PM -14.6522 -73.9261 352° North  Level FlightAware Approximate
10:19PM -14.5367 -73.9432 352° North  Level FlightAware Approximate
10:20PM -14.4212 -73.9602 352° North  Level FlightAware Approximate
10:21PM -14.3057 -73.9771 352° North  Level FlightAware Approximate
10:22PM -14.1902 -73.9941 352° North  Level FlightAware Approximate
10:23PM -14.0746 -74.0111 352° North  Level FlightAware Approximate
10:24PM -13.9585 -74.0281 352° North  Level FlightAware Approximate
10:25PM -13.8424 -74.0451 352° North  Level FlightAware Approximate
10:26PM -13.7263 -74.0621 352° North  Level FlightAware Approximate
10:27PM -13.6102 -74.0790 352° North  Level FlightAware Approximate
10:28PM -13.4941 -74.0960 352° North  Level FlightAware Approximate
10:29PM -13.3780 -74.1129 352° North  Level FlightAware Approximate
10:30PM -13.2619 -74.1299 352° North  Level FlightAware Approximate
10:31PM -13.1458 -74.1468 352° North  Level FlightAware Approximate
10:32PM -13.0296 -74.1637 352° North  Level FlightAware Approximate
10:33PM -12.9135 -74.1805 352° North  Level FlightAware Approximate
10:34PM -12.7974 -74.1974 352° North  Level FlightAware Approximate
10:35PM -12.6813 -74.2142 352° North  Level FlightAware Approximate
10:36PM -12.5652 -74.2310 352° North  Level FlightAware Approximate
10:37PM -12.4490 -74.2478 352° North  Level FlightAware Approximate
10:38PM -12.3329 -74.2646 352° North  Level FlightAware Approximate
10:39PM -12.2168 -74.2814 352° North  Level FlightAware Approximate
10:40PM -12.1007 -74.2982 352° North  Level FlightAware Approximate
10:41PM -11.9846 -74.3149 352° North  Level FlightAware Approximate
10:42PM -11.8685 -74.3317 352° North  Level FlightAware Approximate
10:43PM -11.7523 -74.3484 352° North  Level FlightAware Approximate
10:44PM -11.6362 -74.3651 352° North  Level FlightAware Approximate
10:45PM -11.5201 -74.3818 352° North  Level FlightAware Approximate
10:46PM -11.4039 -74.3985 352° North  Level FlightAware Approximate
10:47PM -11.2878 -74.4152 352° North  Level FlightAware Approximate
10:48PM -11.1717 -74.4318 352° North  Level FlightAware Approximate
10:49PM -11.0555 -74.4484 352° North  Level FlightAware Approximate
10:50PM -10.9394 -74.4651 352° North  Level FlightAware Approximate
10:51PM -10.8233 -74.4817 352° North  Level FlightAware Approximate
10:52PM -10.7072 -74.4983 352° North  Level FlightAware Approximate
10:53PM -10.5910 -74.5149 352° North  Level FlightAware Approximate
10:54PM -10.4749 -74.5314 352° North  Level FlightAware Approximate
10:55PM -10.3587 -74.5480 352° North  Level FlightAware Approximate
10:56PM -10.2426 -74.5646 352° North  Level FlightAware Approximate
10:57PM -10.1265 -74.5811 352° North  Level FlightAware Approximate
10:58PM -10.0103 -74.5976 352° North  Level FlightAware Approximate
10:59PM -9.8942 -74.6141 352° North  Level FlightAware Approximate
11:00PM -9.7780 -74.6306 352° North  Level FlightAware Approximate
11:01PM -9.6619 -74.6471 352° North  Level FlightAware Approximate
11:02PM -9.5458 -74.6636 352° North  Level FlightAware Approximate
11:03PM -9.4296 -74.6801 352° North  Level FlightAware Approximate
11:04PM -9.3135 -74.6965 352° North  Level FlightAware Approximate
11:05PM -9.1973 -74.7130 352° North  Level FlightAware Approximate
11:06PM -9.0812 -74.7294 352° North  Level FlightAware Approximate
11:07PM -8.9650 -74.7459 352° North  Level FlightAware Approximate
11:08PM -8.8489 -74.7623 352° North  Level FlightAware Approximate
11:09PM -8.7327 -74.7787 352° North  Level FlightAware Approximate
11:10PM -8.6166 -74.7951 352° North  Level FlightAware Approximate
11:11PM -8.5004 -74.8114 352° North  Level FlightAware Approximate
11:12PM -8.3843 -74.8278 352° North  Level FlightAware Approximate
11:13PM -8.2681 -74.8442 352° North  Level FlightAware Approximate
11:14PM -8.1520 -74.8605 352° North  Level FlightAware Approximate
11:15PM -8.0358 -74.8769 352° North  Level FlightAware Approximate
11:16PM -7.9197 -74.8932 352° North  Level FlightAware Approximate
11:17PM -7.8035 -74.9095 352° North  Level FlightAware Approximate
11:18PM -7.6874 -74.9259 352° North  Level FlightAware Approximate
11:19PM -7.5712 -74.9422 352° North  Level FlightAware Approximate
11:20PM -7.4551 -74.9585 352° North  Level FlightAware Approximate
11:21PM -7.3389 -74.9748 352° North  Level FlightAware Approximate
11:22PM -7.2228 -74.9910 352° North  Level FlightAware Approximate
11:23PM -7.1066 -75.0073 352° North  Level FlightAware Approximate
11:24PM -6.9904 -75.0236 352° North  Level FlightAware Approximate
11:25PM -6.8743 -75.0398 352° North  Level FlightAware Approximate
11:26PM -6.7581 -75.0561 352° North  Level FlightAware Approximate
11:27PM -6.6420 -75.0723 352° North  Level FlightAware Approximate
11:28PM -6.5258 -75.0886 352° North  Level FlightAware Approximate
11:29PM -6.4096 -75.1048 352° North  Level FlightAware Approximate
11:30PM -6.2935 -75.1210 352° North  Level FlightAware Approximate
11:31PM -6.1773 -75.1372 352° North  Level FlightAware Approximate
11:32PM -6.0612 -75.1534 352° North  Level FlightAware Approximate
11:33PM -5.9450 -75.1696 352° North  Level FlightAware Approximate
11:34PM -5.8288 -75.1858 352° North  Level FlightAware Approximate
11:35PM -5.7127 -75.2020 352° North  Level FlightAware Approximate
11:36PM -5.5965 -75.2182 352° North  Level FlightAware Approximate
11:37PM -5.4804 -75.2344 352° North  Level FlightAware Approximate
11:38PM -5.3642 -75.2505 352° North  Level FlightAware Approximate
11:39PM -5.2481 -75.2667 352° North  Level FlightAware Approximate
11:40PM -5.1319 -75.2828 352° North  Level FlightAware Approximate
11:41PM -5.0157 -75.2990 352° North  Level FlightAware Approximate
11:42PM -4.8990 -75.3152 352° North  Level FlightAware Approximate
11:43PM -4.7822 -75.3314 352° North  Level FlightAware Approximate
11:44PM -4.6654 -75.3476 352° North  Level FlightAware Approximate
11:45PM -4.5487 -75.3638 352° North  Level FlightAware Approximate
11:46PM -4.4319 -75.3800 352° North  Level FlightAware Approximate
11:47PM -4.3152 -75.3962 352° North  Level FlightAware Approximate
11:48PM -4.1984 -75.4124 352° North  Level FlightAware Approximate
11:49PM -4.0816 -75.4286 352° North  Level FlightAware Approximate
11:50PM -3.9649 -75.4448 352° North  Level FlightAware Approximate
11:51PM -3.8481 -75.4610 352° North  Level FlightAware Approximate
11:52PM -3.7314 -75.4771 352° North  Level FlightAware Approximate
11:53PM -3.6146 -75.4933 352° North  Level FlightAware Approximate
11:54PM -3.4978 -75.5095 352° North  Level FlightAware Approximate
11:55PM -3.3811 -75.5257 352° North  Level FlightAware Approximate
11:56PM -3.2643 -75.5418 352° North  Level FlightAware Approximate
11:57PM -3.1476 -75.5580 352° North  Level FlightAware Approximate
11:58PM -3.0308 -75.5741 352° North  Level FlightAware Approximate
11:59PM -2.9140 -75.5903 352° North  Level FlightAware Approximate
12:00AM -2.7973 -75.6064 352° North  Level FlightAware Approximate
12:01AM -2.6805 -75.6225 352° North  Level FlightAware Approximate
12:02AM -2.5638 -75.6387 352° North  Level FlightAware Approximate
12:03AM -2.4470 -75.6548 352° North  Level FlightAware Approximate
12:04AM -2.3302 -75.6709 352° North  Level FlightAware Approximate
12:05AM -2.2135 -75.6871 352° North  Level FlightAware Approximate
12:06AM -2.0967 -75.7032 352° North  Level FlightAware Approximate
12:07AM -1.9800 -75.7193 352° North  Level FlightAware Approximate
12:08AM -1.8632 -75.7354 352° North  Level FlightAware Approximate
12:09AM -1.7464 -75.7516 352° North  Level FlightAware Approximate
12:10AM -1.6297 -75.7677 352° North  Level FlightAware Approximate
12:11AM -1.5129 -75.7838 352° North  Level FlightAware Approximate
12:12AM -1.3962 -75.7999 352° North  Level FlightAware Approximate
12:13AM -1.2794 -75.8160 352° North  Level FlightAware Approximate
12:14AM -1.1626 -75.8321 352° North  Level FlightAware Approximate
12:15AM -1.0459 -75.8482 352° North  Level FlightAware Approximate
12:16AM -0.9291 -75.8643 352° North  Level FlightAware Approximate
12:17AM -0.8123 -75.8804 352° North  Level FlightAware Approximate
12:18AM -0.6956 -75.8966 352° North  Level FlightAware Approximate
12:19AM -0.5788 -75.9127 352° North  Level FlightAware Approximate
12:20AM -0.4620 -75.9288 352° North  Level FlightAware Approximate
12:21AM -0.3453 -75.9449 352° North  Level FlightAware Approximate
12:22AM -0.2285 -75.9610 352° North  Level FlightAware Approximate
12:23AM -0.1117 -75.9771 352° North  Level FlightAware Approximate
12:24AM 0.0051 -75.9932 352° North  Level FlightAware Approximate
12:25AM 0.1218 -76.0093 352° North  Level FlightAware Approximate
12:26AM 0.2386 -76.0254 352° North  Level FlightAware Approximate
12:27AM 0.3554 -76.0415 352° North  Level FlightAware Approximate
12:28AM 0.4721 -76.0576 352° North  Level FlightAware Approximate
12:29AM 0.5889 -76.0737 352° North  Level FlightAware Approximate
12:30AM 0.7057 -76.0898 352° North  Level FlightAware Approximate
12:31AM 0.8224 -76.1059 352° North  Level FlightAware Approximate
12:32AM 0.9392 -76.1220 352° North  Level FlightAware Approximate
12:33AM 1.0560 -76.1381 352° North  Level FlightAware Approximate
12:34AM 1.1728 -76.1542 352° North  Level FlightAware Approximate
12:35AM 1.2895 -76.1703 352° North  Level FlightAware Approximate
12:36AM 1.4063 -76.1865 352° North  Level FlightAware Approximate
12:37AM 1.5230 -76.2026 352° North  Level FlightAware Approximate
12:38AM 1.6398 -76.2187 352° North  Level FlightAware Approximate
12:39AM 1.7566 -76.2348 352° North  Level FlightAware Approximate
12:40AM 1.8733 -76.2509 352° North  Level FlightAware Approximate
12:41AM 1.9900 -76.2674 352° North  Level FlightAware Approximate
12:42AM 2.1068 -76.2840 352° North  Level FlightAware Approximate
12:43AM 2.2235 -76.3005 352° North  Level FlightAware Approximate
12:44AM 2.3402 -76.3170 352° North  Level FlightAware Approximate
12:45AM 2.4569 -76.3335 352° North  Level FlightAware Approximate
12:46AM 2.5736 -76.3500 352° North  Level FlightAware Approximate
12:47AM 2.6903 -76.3665 352° North  Level FlightAware Approximate
12:48AM 2.8070 -76.3830 352° North  Level FlightAware Approximate
12:49AM 2.9237 -76.3996 352° North  Level FlightAware Approximate
12:50AM 3.0404 -76.4161 352° North  Level FlightAware Approximate
12:51AM 3.1571 -76.4326 352° North  Level FlightAware Approximate
12:52AM 3.2738 -76.4492 352° North  Level FlightAware Approximate
12:53AM 3.3906 -76.4657 352° North  Level FlightAware Approximate
12:54AM 3.5073 -76.4822 352° North  Level FlightAware Approximate
12:55AM 3.6240 -76.4988 352° North  Level FlightAware Approximate
12:56AM 3.7407 -76.5154 352° North  Level FlightAware Approximate
12:57AM 3.8575 -76.5310 352° North  Level FlightAware Approximate
12:58AM 3.9743 -76.5466 352° North  Level FlightAware Approximate
12:59AM 4.0912 -76.5623 352° North  Level FlightAware Approximate
01:00AM 4.2088 -76.5780 352° North  Level FlightAware Approximate
01:01AM 4.3264 -76.5937 352° North  Level FlightAware Approximate
01:02AM 4.4441 -76.6095 352° North  Level FlightAware Approximate
01:03AM 4.5617 -76.6252 352° North  Level FlightAware Approximate
01:04AM 4.6793 -76.6410 352° North  Level FlightAware Approximate
01:05AM 4.7970 -76.6567 352° North  Level FlightAware Approximate
01:06AM 4.9146 -76.6725 352° North  Level FlightAware Approximate
01:07AM 5.0322 -76.6882 352° North  Level FlightAware Approximate
01:08AM 5.1499 -76.7040 352° North  Level FlightAware Approximate
01:09AM 5.2675 -76.7198 352° North  Level FlightAware Approximate
01:10AM 5.3851 -76.7356 352° North  Level FlightAware Approximate
01:11AM 5.5027 -76.7514 352° North  Level FlightAware Approximate
01:12AM 5.6204 -76.7672 352° North  Level FlightAware Approximate
01:13AM 5.7379 -76.7838 352° North  Level FlightAware Approximate
01:14AM 5.8554 -76.8004 352° North  Level FlightAware Approximate
01:15AM 5.9730 -76.8170 352° North  Level FlightAware Approximate
01:16AM 6.0905 -76.8336 352° North  Level FlightAware Approximate
01:17AM 6.2080 -76.8502 352° North  Level FlightAware Approximate
01:18AM 6.3255 -76.8668 352° North  Level FlightAware Approximate
01:19AM 6.4430 -76.8834 352° North  Level FlightAware Approximate
01:20AM 6.5606 -76.9001 352° North  Level FlightAware Approximate
01:21AM 6.6781 -76.9167 352° North  Level FlightAware Approximate
01:22AM 6.7956 -76.9333 352° North  Level FlightAware Approximate
01:23AM 6.9131 -76.9500 352° North  Level FlightAware Approximate
01:24AM 7.0306 -76.9667 352° North  Level FlightAware Approximate
01:25AM 7.1482 -76.9834 352° North  Level FlightAware Approximate
01:26AM 7.2657 -77.0000 352° North  Level FlightAware Approximate
01:27AM 7.3832 -77.0167 352° North  Level FlightAware Approximate
01:28AM 7.5007 -77.0334 352° North  Level FlightAware Approximate
01:29AM 7.6182 -77.0502 352° North  Level FlightAware Approximate
01:30AM 7.7357 -77.0669 352° North  Level FlightAware Approximate
01:31AM 7.8533 -77.0837 352° North  Level FlightAware Approximate
01:32AM 7.9708 -77.1005 352° North  Level FlightAware Approximate
01:33AM 8.0883 -77.1173 352° North  Level FlightAware Approximate
01:34AM 8.2058 -77.1341 352° North  Level FlightAware Approximate
01:35AM 8.3233 -77.1509 352° North  Level FlightAware Approximate
01:36AM 8.4408 -77.1677 352° North  Level FlightAware Approximate
01:37AM 8.5583 -77.1843 352° North  Level FlightAware Approximate
01:38AM 8.6758 -77.2008 352° North  Level FlightAware Approximate
01:39AM 8.7934 -77.2174 352° North  Level FlightAware Approximate
01:40AM 8.9109 -77.2340 352° North  Level FlightAware Approximate
01:41AM 9.0285 -77.2506 352° North  Level FlightAware Approximate
01:42AM 9.1460 -77.2672 352° North  Level FlightAware Approximate
01:43AM 9.2635 -77.2839 352° North  Level FlightAware Approximate
01:44AM 9.3811 -77.3005 352° North  Level FlightAware Approximate
01:45AM 9.4986 -77.3171 352° North  Level FlightAware Approximate
01:46AM 9.6161 -77.3338 352° North  Level FlightAware Approximate
01:47AM 9.7337 -77.3505 352° North  Level FlightAware Approximate
01:48AM 9.8512 -77.3671 352° North  Level FlightAware Approximate
01:49AM 9.9687 -77.3838 352° North  Level FlightAware Approximate
01:50AM 10.0863 -77.4006 352° North  Level FlightAware Approximate
01:51AM 10.2038 -77.4173 352° North  Level FlightAware Approximate
01:52AM 10.3213 -77.4340 352° North  Level FlightAware Approximate
01:53AM 10.4389 -77.4507 352° North  Level FlightAware Approximate
01:54AM 10.5564 -77.4674 352° North  Level FlightAware Approximate
01:55AM 10.6739 -77.4841 352° North  Level FlightAware Approximate
01:56AM 10.7915 -77.5008 352° North  Level FlightAware Approximate
01:57AM 10.9090 -77.5176 352° North  Level FlightAware Approximate
01:58AM 11.0265 -77.5343 352° North  Level FlightAware Approximate
01:59AM 11.1440 -77.5511 352° North  Level FlightAware Approximate
02:00AM 11.2616 -77.5679 352° North  Level FlightAware Approximate
02:01AM 11.3791 -77.5847 352° North  Level FlightAware Approximate
02:02AM 11.4966 -77.6015 352° North  Level FlightAware Approximate
02:03AM 11.6142 -77.6183 352° North  Level FlightAware Approximate
02:04AM 11.7317 -77.6352 352° North  Level FlightAware Approximate
02:05AM 11.8492 -77.6520 352° North  Level FlightAware Approximate
02:06AM 11.9667 -77.6689 352° North  Level FlightAware Approximate
02:07AM 12.0843 -77.6858 352° North  Level FlightAware Approximate
02:08AM 12.2018 -77.7027 352° North  Level FlightAware Approximate
02:09AM 12.3193 -77.7199 352° North  Level FlightAware Approximate
02:10AM 12.4367 -77.7371 352° North  Level FlightAware Approximate
02:11AM 12.5542 -77.7543 352° North  Level FlightAware Approximate
02:12AM 12.6717 -77.7716 352° North  Level FlightAware Approximate
02:13AM 12.7892 -77.7888 352° North  Level FlightAware Approximate
02:14AM 12.9067 -77.8061 352° North  Level FlightAware Approximate
02:15AM 13.0241 -77.8233 352° North  Level FlightAware Approximate
02:16AM 13.1416 -77.8407 352° North  Level FlightAware Approximate
02:17AM 13.2591 -77.8580 352° North  Level FlightAware Approximate
02:18AM 13.3765 -77.8753 352° North  Level FlightAware Approximate
02:19AM 13.4940 -77.8926 352° North  Level FlightAware Approximate
02:20AM 13.6115 -77.9100 352° North  Level FlightAware Approximate
02:21AM 13.7290 -77.9274 352° North  Level FlightAware Approximate
02:22AM 13.8464 -77.9448 352° North  Level FlightAware Approximate
02:23AM 13.9639 -77.9622 352° North  Level FlightAware Approximate
02:24AM 14.0814 -77.9797 352° North  Level FlightAware Approximate
02:25AM 14.1988 -77.9971 352° North  Level FlightAware Approximate
02:26AM 14.3163 -78.0146 352° North  Level FlightAware Approximate
02:27AM 14.4337 -78.0321 352° North  Level FlightAware Approximate
02:28AM 14.5512 -78.0496 352° North  Level FlightAware Approximate
02:29AM 14.6687 -78.0671 352° North  Level FlightAware Approximate
02:30AM 14.7861 -78.0847 352° North  Level FlightAware Approximate
02:31AM 14.9036 -78.1022 352° North  Level FlightAware Approximate
02:32AM 15.0210 -78.1197 352° North  Level FlightAware Approximate
02:33AM 15.1385 -78.1369 352° North  Level FlightAware Approximate
02:34AM 15.2561 -78.1541 352° North  Level FlightAware Approximate
02:35AM 15.3736 -78.1713 352° North  Level FlightAware Approximate
02:36AM 15.4911 -78.1886 352° North  Level FlightAware Approximate
02:37AM 15.6086 -78.2058 352° North  Level FlightAware Approximate
02:38AM 15.7261 -78.2231 352° North  Level FlightAware Approximate
02:39AM 15.8436 -78.2404 352° North  Level FlightAware Approximate
02:40AM 15.9611 -78.2577 352° North  Level FlightAware Approximate
02:41AM 16.0786 -78.2751 352° North  Level FlightAware Approximate
02:42AM 16.1961 -78.2924 352° North  Level FlightAware Approximate
02:43AM 16.3136 -78.3098 352° North  Level FlightAware Approximate
02:44AM 16.4311 -78.3272 352° North  Level FlightAware Approximate
02:45AM 16.5486 -78.3446 352° North  Level FlightAware Approximate
02:46AM 16.6661 -78.3621 352° North  Level FlightAware Approximate
02:47AM 16.7836 -78.3795 352° North  Level FlightAware Approximate
02:48AM 16.9011 -78.3970 352° North  Level FlightAware Approximate
02:49AM 17.0186 -78.4145 352° North  Level FlightAware Approximate
02:50AM 17.1360 -78.4320 352° North  Level FlightAware Approximate
02:51AM 17.2535 -78.4496 352° North  Level FlightAware Approximate
02:52AM 17.3710 -78.4672 352° North  Level FlightAware Approximate
02:53AM 17.4885 -78.4847 352° North  Level FlightAware Approximate
02:54AM 17.6060 -78.5024 352° North  Level FlightAware Approximate
02:55AM 17.7235 -78.5200 352° North  Level FlightAware Approximate
02:56AM 17.8410 -78.5377 352° North  Level FlightAware Approximate
02:57AM 17.9584 -78.5554 352° North  Level FlightAware Approximate
02:58AM 18.0759 -78.5731 352° North  Level FlightAware Approximate
02:59AM 18.1934 -78.5908 352° North  Level FlightAware Approximate
03:00AM 18.3109 -78.6086 352° North  Level FlightAware Approximate
03:01AM 18.4283 -78.6263 352° North  Level FlightAware Approximate
03:02AM 18.5458 -78.6441 352° North  Level FlightAware Approximate
03:03AM 18.6633 -78.6620 352° North  Level FlightAware Approximate
03:04AM 18.7807 -78.6798 352° North  Level FlightAware Approximate
03:05AM 18.8982 -78.6977 352° North  Level FlightAware Approximate
03:06AM 19.0156 -78.7156 352° North  Level FlightAware Approximate
03:07AM 19.1331 -78.7335 352° North  Level FlightAware Approximate
03:08AM 19.2506 -78.7515 352° North  Level FlightAware Approximate
03:09AM 19.3680 -78.7695 352° North  Level FlightAware Approximate
03:10AM 19.4855 -78.7875 352° North  Level FlightAware Approximate
03:11AM 19.6029 -78.8055 352° North  Level FlightAware Approximate
03:12AM 19.7204 -78.8236 352° North  Level FlightAware Approximate
03:13AM 19.8378 -78.8417 352° North  Level FlightAware Approximate
03:14AM 19.9553 -78.8598 352° North  Level FlightAware Approximate
03:15AM 20.0727 -78.8778 352° North  Level FlightAware Approximate
03:16AM 20.1902 -78.8959 352° North  Level FlightAware Approximate
03:17AM 20.3076 -78.9140 352° North  Level FlightAware Approximate
03:18AM 20.4251 -78.9321 352° North  Level FlightAware Approximate
03:19AM 20.5424 -78.9514 351° North  Level FlightAware Approximate
03:20AM 20.6597 -78.9709 351° North  Level FlightAware Approximate
03:21AM 20.7769 -78.9904 351° North  Level FlightAware Approximate
03:22AM 20.8942 -79.0099 351° North  Level FlightAware Approximate
03:23AM 21.0114 -79.0295 351° North  Level FlightAware Approximate
03:24AM 21.1287 -79.0491 351° North  Level FlightAware Approximate
03:25AM 21.2460 -79.0687 351° North  Level FlightAware Approximate
03:26AM 21.3633 -79.0879 352° North  Level FlightAware Approximate
03:27AM 21.4807 -79.1060 352° North  Level FlightAware Approximate
03:28AM 21.5982 -79.1244 352° North  Level FlightAware Approximate
03:29AM 21.7156 -79.1432 352° North  Level FlightAware Approximate
03:30AM 21.8329 -79.1621 352° North  Level FlightAware Approximate
03:30AM 23.2169 -79.3864 351° North 460 529 36,000  Level Miami Center
03:31AM 21.9503 -79.1810 351° North  Level FlightAware Approximate
03:31AM 23.3356 -79.4067 351° North 448 516 36,000  Level Miami Center
03:32AM 22.0677 -79.2000 351° North  Level FlightAware Approximate
03:32AM 23.4481 -79.4317 348° North 428 493 36,000  Level Miami Center
03:33AM 22.1850 -79.2190 351° North  Level FlightAware Approximate
03:33AM 23.5669 -79.4453 354° North 421 484 36,000  Level Miami Center
03:34AM 22.3024 -79.2380 351° North  Level FlightAware Approximate
03:34AM 23.6794 -79.4658 351° North 421 484 36,000  Level Miami Center
03:35AM 22.4198 -79.2570 351° North  Level FlightAware Approximate
03:35AM 23.7981 -79.4839 352° North 421 484 36,000  Level Miami Center
03:36AM 23.9017 -79.5339 336° Northwest 409 471 36,000  Level Miami Center
03:37AM 24.0031 -79.5906 333° Northwest 409 471 36,000  Level Miami Center
03:38AM 24.1064 -79.6497 332° Northwest 409 471 36,000  Level Miami Center
03:39AM 24.2078 -79.7089 332° Northwest 409 471 36,000  Level Miami Center
03:40AM 24.3111 -79.7706 331° Northwest 409 471 36,000  Level Miami Center
03:41AM 24.4122 -79.8322 331° Northwest 414 476 36,000  Level Miami Center
03:42AM 24.5153 -79.8942 331° Northwest 414 476 36,000  Level Miami Center
03:43AM 24.6206 -79.9561 332° Northwest 414 476 36,000  Level Miami Center
03:44AM 24.7239 -80.0136 333° Northwest 414 476 36,000  Level Miami Center
03:45AM 24.8250 -80.0756 331° Northwest 414 476 36,000  Level Miami Center
03:46AM 24.9303 -80.1356 333° Northwest 414 476 36,000  Level Miami Center
03:47AM 25.0311 -80.1981 331° Northwest 414 476 36,000  Level Miami Center
03:48AM 25.1342 -80.2603 331° Northwest 414 476 36,000  Level Miami Center
03:49AM 25.2331 -80.3228 330° Northwest 414 476 36,000  Level Miami Center
03:50AM 25.3428 -80.3675 340° North 409 471 36,000  Level Miami Center
03:51AM 25.4572 -80.3867 351° North 414 476 36,000  Level Miami Center
03:52AM 25.5667 -80.4314 340° North 414 476 36,000  Level Miami Center
03:53AM 25.6844 -80.4856 337° Northwest 424 488 36,000  Level Miami Center
03:54AM 25.8003 -80.5353 339° North 424 488 36,000  Level Miami Center
03:55AM 25.9033 -80.5822 338° Northwest 430 495 36,000  Level Miami Center
03:56AM 26.0108 -80.6319 337° Northwest 420 483 36,000  Level Miami Center
03:57AM 26.1161 -80.6814 337° Northwest 415 478 36,000  Level Miami Center
03:58AM 26.2233 -80.7289 338° Northwest 415 478 36,000  Level Miami Center
03:59AM 26.3283 -80.7833 335° Northwest 410 472 36,000  Level Miami Center
04:00AM 26.4356 -80.8333 337° Northwest 415 478 36,000  Level Miami Center
04:01AM 26.5408 -80.8786 339° North 409 471 36,000  Level Miami Center
04:02AM 26.6503 -80.9289 338° Northwest 409 471 36,000  Level Miami Center
04:03AM 26.7553 -80.9789 337° Northwest 409 471 36,000  Level Miami Center
04:04AM 26.8664 -81.0342 336° Northwest 415 478 36,000  Level Miami Center
04:05AM 26.9614 -81.0769 338° Northwest 415 478 36,000  Level Miami Center
04:06AM 27.0683 -81.1300 336° Northwest 415 478 36,000  Level Miami Center
04:07AM 27.1756 -81.1783 338° Northwest 415 478 36,000  Level Miami Center
04:08AM 27.2989 -81.2367 337° Northwest 415 478 36,000  Level Miami Center
04:09AM 27.4058 -81.2897 336° Northwest 422 486 36,000  Level Miami Center
04:10AM 27.5169 -81.3386 339° North 422 486 36,000  Level Miami Center
04:11AM 27.6239 -81.3894 337° Northwest 422 486 36,000  Level Miami Center
04:13AM 27.8503 -81.4961 337° Northwest 414 476 36,000  Level Jacksonville Center
04:14AM 27.9636 -81.5486 338° Northwest 425 489 36,000  Level Jacksonville Center
04:15AM 28.0725 -81.6014 337° Northwest 425 489 36,000  Level Jacksonville Center
04:16AM 28.1817 -81.6539 337° Northwest 425 489 36,000  Level Jacksonville Center
04:17AM 28.2947 -81.7069 338° Northwest 425 489 36,000  Level Jacksonville Center
04:18AM 28.4036 -81.7575 338° Northwest 425 489 36,000  Level Jacksonville Center
04:19AM 28.5106 -81.8153 335° Northwest 420 483 36,000  Level Jacksonville Center
04:20AM 28.6217 -81.8661 338° Northwest 420 483 36,000  Level Jacksonville Center
04:21AM 28.7244 -81.9194 336° Northwest 414 476 36,000  Level Jacksonville Center
04:22AM 28.8228 -81.9636 339° North 414 476 36,000  Level Jacksonville Center
04:23AM 28.9294 -82.0172 336° Northwest 419 482 36,000  Level Jacksonville Center
04:24AM 29.0364 -82.0708 336° Northwest 414 476 36,000  Level Jacksonville Center
04:25AM 29.1453 -82.1222 338° Northwest 419 482 36,000  Level Jacksonville Center
04:26AM 29.2542 -82.1786 336° Northwest 424 488 36,000  Level Jacksonville Center
04:27AM 29.3650 -82.2300 338° Northwest 424 488 36,000  Level Jacksonville Center
04:28AM 29.4758 -82.2842 337° Northwest 424 488 36,000  Level Jacksonville Center
04:29AM 29.5889 -82.3386 337° Northwest 429 494 36,000  Level Jacksonville Center
04:30AM 29.6997 -82.3928 337° Northwest 429 494 36,000  Level Jacksonville Center
04:31AM 29.8106 -82.4497 336° Northwest 429 494 36,000  Level Jacksonville Center
04:32AM 29.9214 -82.5044 337° Northwest 429 494 36,000  Level Jacksonville Center
04:33AM 30.0303 -82.5614 336° Northwest 429 494 36,000  Level Jacksonville Center
04:34AM 30.1408 -82.6186 336° Northwest 429 494 36,000  Level Jacksonville Center
04:35AM 30.2497 -82.6689 338° Northwest 429 494 36,000  Level Jacksonville Center
04:36AM 30.3603 -82.7242 337° Northwest 424 488 36,000  Level Jacksonville Center
04:37AM 30.4669 -82.7769 337° Northwest 419 482 36,000  Level Jacksonville Center
04:38AM 30.5817 -82.8394 335° Northwest 419 482 36,000  Level Jacksonville Center
04:39AM 30.6903 -82.8950 336° Northwest 419 482 36,000  Level Jacksonville Center
04:40AM 30.7969 -82.9481 337° Northwest 419 482 36,000 -300 Level Jacksonville Center
04:41AM 30.8928 -82.9967 336° Northwest 419 482 35,500 -1,080 Descending Jacksonville Center
04:42AM 31.0014 -83.0500 337° Northwest 419 482 33,900 -1,260 Descending Jacksonville Center
04:43AM 31.1119 -83.1108 335° Northwest 425 489 33,000 -840 Descending Jacksonville Center
04:45AM 31.2931 -83.2006 337° Northwest 437 503 31,800 -840 Descending Atlanta Center
04:46AM 31.4061 -83.2603 336° Northwest 437 503 30,900 -900 Descending Atlanta Center
04:47AM 31.5192 -83.3178 337° Northwest 437 503 30,100 -960 Descending Atlanta Center
04:48AM 31.6322 -83.3778 336° Northwest 437 503 29,000 -1,080 Descending Atlanta Center
04:49AM 31.7450 -83.4356 336° Northwest 437 503 28,000 -540 Descending Atlanta Center
04:50AM 31.8622 -83.4961 336° Northwest 442 509 28,000  Level Atlanta Center
04:51AM 31.9794 -83.5564 336° Northwest 442 509 28,000  Level Atlanta Center
04:52AM 32.0944 -83.6172 336° Northwest 447 514 28,000  Level Atlanta Center
04:53AM 32.2011 -83.6756 335° Northwest 453 521 28,000  Level Atlanta Center
04:54AM 32.3203 -83.7342 337° Northwest 459 528 28,000 -300 Level Atlanta Center
04:55AM 32.4331 -83.7953 335° Northwest 459 528 27,400 -1,500 Descending Atlanta Center
04:56AM 32.5417 -83.8517 336° Northwest 441 507 25,100 -2,400 Descending Atlanta Center
04:57AM 32.6483 -83.9106 335° Northwest 428 493 22,700 -2,400 Descending Atlanta Center
04:58AM 32.7506 -83.9672 335° Northwest 415 478 20,400 -2,400 Descending Atlanta Center
04:59AM 32.8528 -84.0217 336° Northwest 410 472 17,900 -2,400 Descending Atlanta Center
05:00AM 32.9553 -84.0758 336° Northwest 398 458 15,700 -1,560 Descending Atlanta Center
05:01AM 33.0617 -84.1206 341° North 387 445 14,800 -1,200 Descending Atlanta Center
05:02AM 33.1556 -84.1306 355° North 350 403 13,300 -1,920 Descending Atlanta Center
05:03AM 33.2389 -84.1431 353° North 312 359 11,000 -2,340 Descending Atlanta Center
05:04AM 33.3183 -84.1556 353° North 292 336 8,700 -1,980 Descending Atlanta Center
05:05AM 33.3975 -84.1683 352° North 292 336 7,100 -1,200 Descending Atlanta Center
05:06AM 33.4769 -84.1808 353° North 292 336 6,400 -840 Descending Atlanta Center
05:07AM 33.5500 -84.1833 358° North 252 290 5,500 -1,020 Descending Atlanta TRACON
05:08AM 33.6167 -84.2000 348° North 243 280 4,500 -960 Descending Atlanta TRACON
05:09AM 33.6500 -84.2500 309° West 199 229 3,600 -900 Descending Atlanta TRACON